sensor_id;sensor_type;location;lat;lon;timestamp;P1;durP1;ratioP1;P2;durP2;ratioP2
2646;SDS011;1333;50.958;6.770;2023-02-05T00:01:48;6.43;;;4.20;;
2646;SDS011;1333;50.958;6.770;2023-02-05T00:04:14;11.23;;;5.20;;
2646;SDS011;1333;50.958;6.770;2023-02-05T00:06:39;15.43;;;7.23;;
2646;SDS011;1333;50.958;6.770;2023-02-05T00:09:05;11.50;;;5.10;;
2646;SDS011;1333;50.958;6.770;2023-02-05T00:11:30;8.53;;;4.40;;
2646;SDS011;1333;50.958;6.770;2023-02-05T00:13:56;7.93;;;4.70;;
2646;SDS011;1333;50.958;6.770;2023-02-05T00:16:22;9.33;;;4.43;;
2646;SDS011;1333;50.958;6.770;2023-02-05T00:18:49;13.33;;;6.43;;
2646;SDS011;1333;50.958;6.770;2023-02-05T00:21:16;7.53;;;4.43;;
2646;SDS011;1333;50.958;6.770;2023-02-05T00:23:42;7.97;;;4.90;;
2646;SDS011;1333;50.958;6.770;2023-02-05T00:26:08;15.07;;;5.80;;
2646;SDS011;1333;50.958;6.770;2023-02-05T00:28:43;9.00;;;4.80;;
2646;SDS011;1333;50.958;6.770;2023-02-05T00:31:14;11.03;;;5.67;;
2646;SDS011;1333;50.958;6.770;2023-02-05T00:33:41;6.60;;;4.30;;
2646;SDS011;1333;50.958;6.770;2023-02-05T00:36:08;10.10;;;5.20;;
2646;SDS011;1333;50.958;6.770;2023-02-05T00:38:34;11.10;;;5.60;;
2646;SDS011;1333;50.958;6.770;2023-02-05T00:41:00;9.57;;;4.93;;
2646;SDS011;1333;50.958;6.770;2023-02-05T00:43:26;14.00;;;5.20;;
2646;SDS011;1333;50.958;6.770;2023-02-05T00:45:51;9.37;;;5.00;;
2646;SDS011;1333;50.958;6.770;2023-02-05T00:48:17;9.80;;;5.73;;
2646;SDS011;1333;50.958;6.770;2023-02-05T00:50:42;15.90;;;5.63;;
2646;SDS011;1333;50.958;6.770;2023-02-05T00:53:08;9.27;;;6.43;;
2646;SDS011;1333;50.958;6.770;2023-02-05T00:55:33;16.70;;;7.27;;
2646;SDS011;1333;50.958;6.770;2023-02-05T00:57:59;15.10;;;7.33;;
2646;SDS011;1333;50.958;6.770;2023-02-05T01:00:25;19.00;;;6.03;;
2646;SDS011;1333;50.958;6.770;2023-02-05T01:02:51;10.60;;;6.60;;
2646;SDS011;1333;50.958;6.770;2023-02-05T01:05:17;14.07;;;5.87;;
2646;SDS011;1333;50.958;6.770;2023-02-05T01:07:43;13.73;;;6.67;;
2646;SDS011;1333;50.958;6.770;2023-02-05T01:10:09;9.27;;;5.80;;
2646;SDS011;1333;50.958;6.770;2023-02-05T01:12:34;12.00;;;6.20;;
2646;SDS011;1333;50.958;6.770;2023-02-05T01:15:00;13.90;;;6.43;;
2646;SDS011;1333;50.958;6.770;2023-02-05T01:17:27;12.57;;;5.87;;
2646;SDS011;1333;50.958;6.770;2023-02-05T01:19:53;13.20;;;5.77;;
2646;SDS011;1333;50.958;6.770;2023-02-05T01:22:18;9.80;;;6.23;;
2646;SDS011;1333;50.958;6.770;2023-02-05T01:24:44;13.80;;;5.87;;
2646;SDS011;1333;50.958;6.770;2023-02-05T01:27:09;19.73;;;6.77;;
2646;SDS011;1333;50.958;6.770;2023-02-05T01:29:35;13.53;;;5.47;;
2646;SDS011;1333;50.958;6.770;2023-02-05T01:32:00;13.70;;;5.43;;
2646;SDS011;1333;50.958;6.770;2023-02-05T01:34:26;11.77;;;5.50;;
2646;SDS011;1333;50.958;6.770;2023-02-05T01:36:51;13.57;;;5.20;;
2646;SDS011;1333;50.958;6.770;2023-02-05T01:39:17;16.80;;;5.37;;
2646;SDS011;1333;50.958;6.770;2023-02-05T01:41:42;11.40;;;4.53;;
2646;SDS011;1333;50.958;6.770;2023-02-05T01:46:39;11.70;;;5.87;;
2646;SDS011;1333;50.958;6.770;2023-02-05T01:49:07;8.30;;;5.10;;
2646;SDS011;1333;50.958;6.770;2023-02-05T01:51:36;14.83;;;6.27;;
2646;SDS011;1333;50.958;6.770;2023-02-05T01:54:02;18.00;;;6.37;;
2646;SDS011;1333;50.958;6.770;2023-02-05T01:56:30;16.33;;;6.60;;
2646;SDS011;1333;50.958;6.770;2023-02-05T01:59:01;8.30;;;5.40;;
2646;SDS011;1333;50.958;6.770;2023-02-05T02:01:40;14.00;;;5.90;;
2646;SDS011;1333;50.958;6.770;2023-02-05T02:04:06;14.37;;;6.37;;
2646;SDS011;1333;50.958;6.770;2023-02-05T02:06:33;17.07;;;5.90;;
2646;SDS011;1333;50.958;6.770;2023-02-05T02:09:00;24.13;;;7.63;;
2646;SDS011;1333;50.958;6.770;2023-02-05T02:11:27;18.93;;;7.40;;
2646;SDS011;1333;50.958;6.770;2023-02-05T02:13:55;15.57;;;8.03;;
2646;SDS011;1333;50.958;6.770;2023-02-05T02:16:23;17.23;;;9.07;;
2646;SDS011;1333;50.958;6.770;2023-02-05T02:18:51;14.03;;;8.40;;
2646;SDS011;1333;50.958;6.770;2023-02-05T02:29:34;17.53;;;8.13;;
2646;SDS011;1333;50.958;6.770;2023-02-05T02:32:25;13.20;;;8.83;;
2646;SDS011;1333;50.958;6.770;2023-02-05T02:35:36;11.87;;;7.10;;
2646;SDS011;1333;50.958;6.770;2023-02-05T02:37:57;13.30;;;8.17;;
2646;SDS011;1333;50.958;6.770;2023-02-05T02:40:49;18.77;;;8.07;;
2646;SDS011;1333;50.958;6.770;2023-02-05T02:49:01;16.10;;;9.30;;
2646;SDS011;1333;50.958;6.770;2023-02-05T02:51:29;8.70;;;6.70;;
2646;SDS011;1333;50.958;6.770;2023-02-05T02:53:58;21.17;;;8.60;;
2646;SDS011;1333;50.958;6.770;2023-02-05T02:56:28;18.63;;;8.00;;
2646;SDS011;1333;50.958;6.770;2023-02-05T02:59:02;14.77;;;8.03;;
2646;SDS011;1333;50.958;6.770;2023-02-05T03:01:32;12.20;;;9.07;;
2646;SDS011;1333;50.958;6.770;2023-02-05T03:04:10;20.57;;;9.50;;
2646;SDS011;1333;50.958;6.770;2023-02-05T03:06:39;21.20;;;10.53;;
2646;SDS011;1333;50.958;6.770;2023-02-05T03:09:10;24.60;;;10.50;;
2646;SDS011;1333;50.958;6.770;2023-02-05T03:11:45;25.00;;;10.80;;
2646;SDS011;1333;50.958;6.770;2023-02-05T03:14:11;19.43;;;10.87;;
2646;SDS011;1333;50.958;6.770;2023-02-05T03:16:37;22.70;;;11.43;;
2646;SDS011;1333;50.958;6.770;2023-02-05T03:19:02;22.47;;;11.20;;
2646;SDS011;1333;50.958;6.770;2023-02-05T03:21:34;21.23;;;10.00;;
2646;SDS011;1333;50.958;6.770;2023-02-05T03:24:04;18.40;;;9.37;;
2646;SDS011;1333;50.958;6.770;2023-02-05T03:26:33;17.50;;;9.20;;
2646;SDS011;1333;50.958;6.770;2023-02-05T03:29:01;19.30;;;8.30;;
2646;SDS011;1333;50.958;6.770;2023-02-05T03:31:39;17.10;;;9.53;;
2646;SDS011;1333;50.958;6.770;2023-02-05T03:36:54;16.67;;;8.80;;
2646;SDS011;1333;50.958;6.770;2023-02-05T03:39:35;12.43;;;8.37;;
2646;SDS011;1333;50.958;6.770;2023-02-05T03:52:41;18.90;;;8.90;;
2646;SDS011;1333;50.958;6.770;2023-02-05T03:55:12;15.97;;;8.97;;
2646;SDS011;1333;50.958;6.770;2023-02-05T03:57:50;16.37;;;7.87;;
2646;SDS011;1333;50.958;6.770;2023-02-05T04:00:26;17.27;;;9.47;;
2646;SDS011;1333;50.958;6.770;2023-02-05T04:02:52;15.13;;;8.90;;
2646;SDS011;1333;50.958;6.770;2023-02-05T04:05:18;14.60;;;8.37;;
2646;SDS011;1333;50.958;6.770;2023-02-05T04:07:46;20.03;;;9.80;;
2646;SDS011;1333;50.958;6.770;2023-02-05T04:10:16;12.33;;;7.60;;
2646;SDS011;1333;50.958;6.770;2023-02-05T04:12:43;20.87;;;9.60;;
2646;SDS011;1333;50.958;6.770;2023-02-05T04:15:08;21.37;;;10.43;;
2646;SDS011;1333;50.958;6.770;2023-02-05T04:17:34;34.10;;;16.70;;
2646;SDS011;1333;50.958;6.770;2023-02-05T04:20:04;19.00;;;10.67;;
2646;SDS011;1333;50.958;6.770;2023-02-05T04:22:31;22.50;;;10.83;;
2646;SDS011;1333;50.958;6.770;2023-02-05T04:24:57;19.70;;;9.47;;
2646;SDS011;1333;50.958;6.770;2023-02-05T04:27:22;20.20;;;8.90;;
2646;SDS011;1333;50.958;6.770;2023-02-05T04:29:48;18.00;;;8.60;;
2646;SDS011;1333;50.958;6.770;2023-02-05T04:32:13;20.53;;;8.77;;
2646;SDS011;1333;50.958;6.770;2023-02-05T04:34:39;16.63;;;10.60;;
2646;SDS011;1333;50.958;6.770;2023-02-05T04:37:04;25.07;;;11.10;;
2646;SDS011;1333;50.958;6.770;2023-02-05T04:39:30;20.00;;;9.70;;
2646;SDS011;1333;50.958;6.770;2023-02-05T04:41:55;26.27;;;11.47;;
2646;SDS011;1333;50.958;6.770;2023-02-05T04:44:21;23.63;;;11.87;;
2646;SDS011;1333;50.958;6.770;2023-02-05T04:46:46;26.50;;;12.70;;
2646;SDS011;1333;50.958;6.770;2023-02-05T04:49:12;32.93;;;13.57;;
2646;SDS011;1333;50.958;6.770;2023-02-05T04:51:38;27.17;;;11.77;;
2646;SDS011;1333;50.958;6.770;2023-02-05T04:54:03;26.33;;;12.80;;
2646;SDS011;1333;50.958;6.770;2023-02-05T04:56:29;29.57;;;10.80;;
2646;SDS011;1333;50.958;6.770;2023-02-05T04:58:54;24.13;;;12.33;;
2646;SDS011;1333;50.958;6.770;2023-02-05T05:01:21;23.53;;;14.07;;
2646;SDS011;1333;50.958;6.770;2023-02-05T05:03:47;22.60;;;10.07;;
2646;SDS011;1333;50.958;6.770;2023-02-05T05:06:13;24.40;;;13.53;;
2646;SDS011;1333;50.958;6.770;2023-02-05T05:08:40;27.90;;;12.43;;
2646;SDS011;1333;50.958;6.770;2023-02-05T05:11:07;21.37;;;13.77;;
2646;SDS011;1333;50.958;6.770;2023-02-05T05:13:37;22.23;;;11.03;;
2646;SDS011;1333;50.958;6.770;2023-02-05T05:16:03;22.00;;;12.77;;
2646;SDS011;1333;50.958;6.770;2023-02-05T05:18:29;25.93;;;13.90;;
2646;SDS011;1333;50.958;6.770;2023-02-05T05:20:55;33.10;;;14.37;;
2646;SDS011;1333;50.958;6.770;2023-02-05T05:23:21;30.57;;;14.43;;
2646;SDS011;1333;50.958;6.770;2023-02-05T05:25:47;32.00;;;12.57;;
2646;SDS011;1333;50.958;6.770;2023-02-05T05:28:13;24.40;;;13.60;;
2646;SDS011;1333;50.958;6.770;2023-02-05T05:30:41;23.00;;;12.47;;
2646;SDS011;1333;50.958;6.770;2023-02-05T05:33:08;26.70;;;12.67;;
2646;SDS011;1333;50.958;6.770;2023-02-05T05:35:34;24.93;;;12.80;;
2646;SDS011;1333;50.958;6.770;2023-02-05T05:38:00;20.30;;;11.23;;
2646;SDS011;1333;50.958;6.770;2023-02-05T05:40:26;21.13;;;12.10;;
2646;SDS011;1333;50.958;6.770;2023-02-05T05:43:11;23.10;;;12.20;;
2646;SDS011;1333;50.958;6.770;2023-02-05T05:45:57;26.53;;;11.60;;
2646;SDS011;1333;50.958;6.770;2023-02-05T05:48:23;21.57;;;11.77;;
2646;SDS011;1333;50.958;6.770;2023-02-05T05:50:49;25.37;;;10.87;;
2646;SDS011;1333;50.958;6.770;2023-02-05T05:53:14;28.43;;;12.30;;
2646;SDS011;1333;50.958;6.770;2023-02-05T05:55:40;18.03;;;10.23;;
2646;SDS011;1333;50.958;6.770;2023-02-05T05:58:06;25.43;;;11.70;;
2646;SDS011;1333;50.958;6.770;2023-02-05T06:00:33;21.60;;;10.57;;
2646;SDS011;1333;50.958;6.770;2023-02-05T06:02:59;20.97;;;11.50;;
2646;SDS011;1333;50.958;6.770;2023-02-05T06:05:24;23.73;;;12.87;;
2646;SDS011;1333;50.958;6.770;2023-02-05T06:07:50;25.27;;;13.70;;
2646;SDS011;1333;50.958;6.770;2023-02-05T06:10:15;26.97;;;14.53;;
2646;SDS011;1333;50.958;6.770;2023-02-05T06:12:41;30.70;;;14.20;;
2646;SDS011;1333;50.958;6.770;2023-02-05T06:15:07;21.70;;;13.93;;
2646;SDS011;1333;50.958;6.770;2023-02-05T06:17:32;28.13;;;14.43;;
2646;SDS011;1333;50.958;6.770;2023-02-05T06:19:58;27.60;;;13.50;;
2646;SDS011;1333;50.958;6.770;2023-02-05T06:22:24;27.00;;;15.00;;
2646;SDS011;1333;50.958;6.770;2023-02-05T06:24:49;27.23;;;14.37;;
2646;SDS011;1333;50.958;6.770;2023-02-05T06:27:15;26.10;;;13.17;;
2646;SDS011;1333;50.958;6.770;2023-02-05T06:29:40;24.93;;;14.83;;
2646;SDS011;1333;50.958;6.770;2023-02-05T06:32:06;31.03;;;14.97;;
2646;SDS011;1333;50.958;6.770;2023-02-05T06:34:31;30.50;;;13.10;;
2646;SDS011;1333;50.958;6.770;2023-02-05T06:36:57;31.83;;;15.50;;
2646;SDS011;1333;50.958;6.770;2023-02-05T06:39:22;23.03;;;11.33;;
2646;SDS011;1333;50.958;6.770;2023-02-05T06:41:48;22.87;;;13.30;;
2646;SDS011;1333;50.958;6.770;2023-02-05T06:44:13;23.93;;;12.93;;
2646;SDS011;1333;50.958;6.770;2023-02-05T06:46:39;21.97;;;12.87;;
2646;SDS011;1333;50.958;6.770;2023-02-05T06:49:04;19.97;;;11.50;;
2646;SDS011;1333;50.958;6.770;2023-02-05T06:51:30;25.40;;;12.97;;
2646;SDS011;1333;50.958;6.770;2023-02-05T06:53:55;27.67;;;13.10;;
2646;SDS011;1333;50.958;6.770;2023-02-05T06:56:21;22.20;;;12.17;;
2646;SDS011;1333;50.958;6.770;2023-02-05T06:58:48;25.93;;;12.97;;
2646;SDS011;1333;50.958;6.770;2023-02-05T07:01:13;29.37;;;14.13;;
2646;SDS011;1333;50.958;6.770;2023-02-05T07:03:39;25.33;;;12.87;;
2646;SDS011;1333;50.958;6.770;2023-02-05T07:06:05;21.97;;;13.03;;
2646;SDS011;1333;50.958;6.770;2023-02-05T07:08:31;23.77;;;13.57;;
2646;SDS011;1333;50.958;6.770;2023-02-05T07:10:57;24.13;;;14.40;;
2646;SDS011;1333;50.958;6.770;2023-02-05T07:13:22;23.70;;;12.43;;
2646;SDS011;1333;50.958;6.770;2023-02-05T07:15:48;18.83;;;12.20;;
2646;SDS011;1333;50.958;6.770;2023-02-05T07:18:14;24.03;;;12.30;;
2646;SDS011;1333;50.958;6.770;2023-02-05T07:20:40;19.97;;;12.83;;
2646;SDS011;1333;50.958;6.770;2023-02-05T07:23:05;24.60;;;13.30;;
2646;SDS011;1333;50.958;6.770;2023-02-05T07:25:32;26.40;;;14.30;;
2646;SDS011;1333;50.958;6.770;2023-02-05T07:28:01;22.47;;;12.47;;
2646;SDS011;1333;50.958;6.770;2023-02-05T07:30:31;19.43;;;10.73;;
2646;SDS011;1333;50.958;6.770;2023-02-05T07:32:58;23.03;;;11.60;;
2646;SDS011;1333;50.958;6.770;2023-02-05T07:35:24;21.10;;;12.47;;
2646;SDS011;1333;50.958;6.770;2023-02-05T07:37:50;23.87;;;13.33;;
2646;SDS011;1333;50.958;6.770;2023-02-05T07:40:16;17.43;;;11.50;;
2646;SDS011;1333;50.958;6.770;2023-02-05T07:42:41;20.23;;;10.37;;
2646;SDS011;1333;50.958;6.770;2023-02-05T07:45:07;21.47;;;13.07;;
2646;SDS011;1333;50.958;6.770;2023-02-05T07:47:33;21.07;;;12.50;;
2646;SDS011;1333;50.958;6.770;2023-02-05T07:49:58;17.70;;;11.30;;
2646;SDS011;1333;50.958;6.770;2023-02-05T07:52:24;19.83;;;12.93;;
2646;SDS011;1333;50.958;6.770;2023-02-05T07:54:49;28.33;;;13.53;;
2646;SDS011;1333;50.958;6.770;2023-02-05T07:57:15;19.90;;;11.90;;
2646;SDS011;1333;50.958;6.770;2023-02-05T07:59:40;20.60;;;14.07;;
2646;SDS011;1333;50.958;6.770;2023-02-05T08:02:07;21.10;;;13.53;;
2646;SDS011;1333;50.958;6.770;2023-02-05T08:04:34;21.43;;;12.50;;
2646;SDS011;1333;50.958;6.770;2023-02-05T08:06:59;16.87;;;13.30;;
2646;SDS011;1333;50.958;6.770;2023-02-05T08:09:25;20.03;;;11.47;;
2646;SDS011;1333;50.958;6.770;2023-02-05T08:11:50;27.27;;;13.10;;
2646;SDS011;1333;50.958;6.770;2023-02-05T08:14:16;17.50;;;10.60;;
2646;SDS011;1333;50.958;6.770;2023-02-05T08:16:41;21.17;;;12.97;;
2646;SDS011;1333;50.958;6.770;2023-02-05T08:19:08;17.13;;;11.40;;
2646;SDS011;1333;50.958;6.770;2023-02-05T08:21:38;20.43;;;12.07;;
2646;SDS011;1333;50.958;6.770;2023-02-05T08:24:04;25.30;;;15.37;;
2646;SDS011;1333;50.958;6.770;2023-02-05T08:26:30;22.17;;;13.90;;
2646;SDS011;1333;50.958;6.770;2023-02-05T08:28:55;20.70;;;13.20;;
2646;SDS011;1333;50.958;6.770;2023-02-05T08:31:21;20.87;;;12.10;;
2646;SDS011;1333;50.958;6.770;2023-02-05T08:33:46;22.47;;;13.30;;
2646;SDS011;1333;50.958;6.770;2023-02-05T08:36:14;19.80;;;10.90;;
2646;SDS011;1333;50.958;6.770;2023-02-05T08:38:40;12.80;;;9.53;;
2646;SDS011;1333;50.958;6.770;2023-02-05T08:41:06;16.40;;;11.17;;
2646;SDS011;1333;50.958;6.770;2023-02-05T08:43:36;16.53;;;10.73;;
2646;SDS011;1333;50.958;6.770;2023-02-05T08:46:03;19.13;;;11.30;;
2646;SDS011;1333;50.958;6.770;2023-02-05T08:48:29;12.90;;;8.80;;
2646;SDS011;1333;50.958;6.770;2023-02-05T08:50:54;12.83;;;8.23;;
2646;SDS011;1333;50.958;6.770;2023-02-05T08:53:20;8.47;;;6.10;;
2646;SDS011;1333;50.958;6.770;2023-02-05T08:55:52;8.90;;;6.10;;
2646;SDS011;1333;50.958;6.770;2023-02-05T08:58:19;6.77;;;4.40;;
2646;SDS011;1333;50.958;6.770;2023-02-05T09:00:44;3.43;;;2.70;;
2646;SDS011;1333;50.958;6.770;2023-02-05T09:03:10;4.50;;;3.97;;
2646;SDS011;1333;50.958;6.770;2023-02-05T09:05:37;2.33;;;1.77;;
2646;SDS011;1333;50.958;6.770;2023-02-05T09:08:03;1.97;;;1.57;;
2646;SDS011;1333;50.958;6.770;2023-02-05T09:10:29;1.63;;;1.30;;
2646;SDS011;1333;50.958;6.770;2023-02-05T09:12:54;2.13;;;1.40;;
2646;SDS011;1333;50.958;6.770;2023-02-05T09:15:20;2.27;;;1.53;;
2646;SDS011;1333;50.958;6.770;2023-02-05T09:17:45;6.23;;;1.30;;
2646;SDS011;1333;50.958;6.770;2023-02-05T09:20:11;1.03;;;0.70;;
2646;SDS011;1333;50.958;6.770;2023-02-05T09:22:36;4.83;;;1.00;;
2646;SDS011;1333;50.958;6.770;2023-02-05T09:25:02;1.77;;;1.00;;
2646;SDS011;1333;50.958;6.770;2023-02-05T09:27:31;1.20;;;0.70;;
2646;SDS011;1333;50.958;6.770;2023-02-05T09:29:57;1.27;;;1.00;;
2646;SDS011;1333;50.958;6.770;2023-02-05T09:32:22;2.40;;;1.40;;
2646;SDS011;1333;50.958;6.770;2023-02-05T09:34:48;1.00;;;0.90;;
2646;SDS011;1333;50.958;6.770;2023-02-05T09:37:14;1.73;;;0.80;;
2646;SDS011;1333;50.958;6.770;2023-02-05T09:39:40;4.00;;;1.60;;
2646;SDS011;1333;50.958;6.770;2023-02-05T09:42:10;3.20;;;1.10;;
2646;SDS011;1333;50.958;6.770;2023-02-05T09:50:36;3.57;;;1.00;;
2646;SDS011;1333;50.958;6.770;2023-02-05T09:53:06;0.87;;;0.70;;
2646;SDS011;1333;50.958;6.770;2023-02-05T09:55:39;1.07;;;0.70;;
2646;SDS011;1333;50.958;6.770;2023-02-05T09:58:18;1.17;;;0.60;;
2646;SDS011;1333;50.958;6.770;2023-02-05T10:00:50;2.80;;;1.73;;
2646;SDS011;1333;50.958;6.770;2023-02-05T10:11:49;1.10;;;0.80;;
2646;SDS011;1333;50.958;6.770;2023-02-05T10:17:31;3.70;;;1.10;;
2646;SDS011;1333;50.958;6.770;2023-02-05T10:23:59;1.83;;;0.80;;
2646;SDS011;1333;50.958;6.770;2023-02-05T10:26:43;6.80;;;1.27;;
2646;SDS011;1333;50.958;6.770;2023-02-05T10:29:16;4.53;;;2.43;;
2646;SDS011;1333;50.958;6.770;2023-02-05T10:36:55;3.63;;;1.00;;
2646;SDS011;1333;50.958;6.770;2023-02-05T10:39:21;2.60;;;0.90;;
2646;SDS011;1333;50.958;6.770;2023-02-05T10:41:51;3.97;;;1.60;;
2646;SDS011;1333;50.958;6.770;2023-02-05T10:44:39;1.53;;;0.77;;
2646;SDS011;1333;50.958;6.770;2023-02-05T10:47:12;4.20;;;1.23;;
2646;SDS011;1333;50.958;6.770;2023-02-05T10:52:26;2.80;;;1.90;;
2646;SDS011;1333;50.958;6.770;2023-02-05T10:54:52;2.13;;;1.20;;
2646;SDS011;1333;50.958;6.770;2023-02-05T10:57:19;1.30;;;0.87;;
2646;SDS011;1333;50.958;6.770;2023-02-05T10:59:58;2.03;;;1.17;;
2646;SDS011;1333;50.958;6.770;2023-02-05T11:02:33;3.00;;;1.20;;
2646;SDS011;1333;50.958;6.770;2023-02-05T11:05:18;3.73;;;1.30;;
2646;SDS011;1333;50.958;6.770;2023-02-05T11:07:45;2.00;;;1.33;;
2646;SDS011;1333;50.958;6.770;2023-02-05T11:12:44;5.40;;;1.53;;
2646;SDS011;1333;50.958;6.770;2023-02-05T11:15:18;3.63;;;0.87;;
2646;SDS011;1333;50.958;6.770;2023-02-05T11:17:50;1.63;;;1.20;;
2646;SDS011;1333;50.958;6.770;2023-02-05T11:20:43;1.30;;;1.20;;
2646;SDS011;1333;50.958;6.770;2023-02-05T11:23:19;4.30;;;1.67;;
2646;SDS011;1333;50.958;6.770;2023-02-05T11:25:57;6.00;;;1.10;;
2646;SDS011;1333;50.958;6.770;2023-02-05T11:28:27;2.90;;;1.33;;
2646;SDS011;1333;50.958;6.770;2023-02-05T11:30:55;3.47;;;1.37;;
2646;SDS011;1333;50.958;6.770;2023-02-05T11:38:32;6.60;;;1.70;;
2646;SDS011;1333;50.958;6.770;2023-02-05T11:41:09;2.03;;;1.33;;
2646;SDS011;1333;50.958;6.770;2023-02-05T11:43:45;5.33;;;1.57;;
2646;SDS011;1333;50.958;6.770;2023-02-05T11:46:15;6.83;;;1.93;;
2646;SDS011;1333;50.958;6.770;2023-02-05T11:48:44;7.27;;;1.60;;
2646;SDS011;1333;50.958;6.770;2023-02-05T11:51:14;4.40;;;1.60;;
2646;SDS011;1333;50.958;6.770;2023-02-05T11:53:53;10.20;;;1.80;;
2646;SDS011;1333;50.958;6.770;2023-02-05T11:56:22;3.83;;;2.10;;
2646;SDS011;1333;50.958;6.770;2023-02-05T11:59:02;9.23;;;2.57;;
2646;SDS011;1333;50.958;6.770;2023-02-05T12:01:33;4.47;;;1.97;;
2646;SDS011;1333;50.958;6.770;2023-02-05T12:04:09;7.70;;;1.87;;
2646;SDS011;1333;50.958;6.770;2023-02-05T12:06:43;8.20;;;1.87;;
2646;SDS011;1333;50.958;6.770;2023-02-05T12:09:16;6.50;;;1.57;;
2646;SDS011;1333;50.958;6.770;2023-02-05T12:17:39;9.63;;;1.80;;
2646;SDS011;1333;50.958;6.770;2023-02-05T12:20:31;5.43;;;1.80;;
2646;SDS011;1333;50.958;6.770;2023-02-05T12:32:05;2.93;;;1.80;;
2646;SDS011;1333;50.958;6.770;2023-02-05T12:40:35;4.77;;;1.60;;
2646;SDS011;1333;50.958;6.770;2023-02-05T12:51:28;4.03;;;1.30;;
2646;SDS011;1333;50.958;6.770;2023-02-05T13:07:34;1.90;;;1.30;;
2646;SDS011;1333;50.958;6.770;2023-02-05T13:12:35;3.57;;;2.00;;
2646;SDS011;1333;50.958;6.770;2023-02-05T13:15:06;8.43;;;2.47;;
2646;SDS011;1333;50.958;6.770;2023-02-05T13:17:52;4.03;;;2.23;;
2646;SDS011;1333;50.958;6.770;2023-02-05T13:20:21;2.23;;;1.93;;
2646;SDS011;1333;50.958;6.770;2023-02-05T13:23:11;6.53;;;1.80;;
2646;SDS011;1333;50.958;6.770;2023-02-05T13:25:56;6.10;;;2.27;;
2646;SDS011;1333;50.958;6.770;2023-02-05T13:28:42;6.70;;;3.00;;
2646;SDS011;1333;50.958;6.770;2023-02-05T13:33:42;8.97;;;2.50;;
2646;SDS011;1333;50.958;6.770;2023-02-05T13:45:06;2.10;;;1.90;;
2646;SDS011;1333;50.958;6.770;2023-02-05T13:48:07;3.53;;;1.77;;
2646;SDS011;1333;50.958;6.770;2023-02-05T13:59:36;3.77;;;2.00;;
2646;SDS011;1333;50.958;6.770;2023-02-05T14:02:28;6.33;;;1.80;;
2646;SDS011;1333;50.958;6.770;2023-02-05T14:04:50;1.13;;;1.00;;
2646;SDS011;1333;50.958;6.770;2023-02-05T14:07:21;3.30;;;1.30;;
2646;SDS011;1333;50.958;6.770;2023-02-05T14:09:54;2.03;;;1.20;;
2646;SDS011;1333;50.958;6.770;2023-02-05T14:12:24;1.57;;;1.10;;
2646;SDS011;1333;50.958;6.770;2023-02-05T14:18:01;3.03;;;1.40;;
2646;SDS011;1333;50.958;6.770;2023-02-05T14:23:20;2.13;;;1.20;;
2646;SDS011;1333;50.958;6.770;2023-02-05T14:26:12;4.67;;;1.20;;
2646;SDS011;1333;50.958;6.770;2023-02-05T14:28:56;5.50;;;2.00;;
2646;SDS011;1333;50.958;6.770;2023-02-05T14:31:43;2.93;;;0.90;;
2646;SDS011;1333;50.958;6.770;2023-02-05T14:34:25;2.30;;;1.23;;
2646;SDS011;1333;50.958;6.770;2023-02-05T14:37:20;2.10;;;2.00;;
2646;SDS011;1333;50.958;6.770;2023-02-05T14:39:49;1.47;;;1.00;;
2646;SDS011;1333;50.958;6.770;2023-02-05T14:42:18;2.40;;;1.33;;
2646;SDS011;1333;50.958;6.770;2023-02-05T14:44:45;5.57;;;1.43;;
2646;SDS011;1333;50.958;6.770;2023-02-05T14:47:25;3.43;;;1.10;;
2646;SDS011;1333;50.958;6.770;2023-02-05T14:50:01;3.77;;;1.40;;
2646;SDS011;1333;50.958;6.770;2023-02-05T14:57:39;2.63;;;1.80;;
2646;SDS011;1333;50.958;6.770;2023-02-05T15:00:31;5.33;;;1.63;;
2646;SDS011;1333;50.958;6.770;2023-02-05T15:05:37;1.73;;;1.17;;
2646;SDS011;1333;50.958;6.770;2023-02-05T15:11:13;2.60;;;0.90;;
2646;SDS011;1333;50.958;6.770;2023-02-05T15:16:44;4.00;;;2.10;;
2646;SDS011;1333;50.958;6.770;2023-02-05T15:19:10;2.10;;;1.90;;
2646;SDS011;1333;50.958;6.770;2023-02-05T15:21:39;1.77;;;1.10;;
2646;SDS011;1333;50.958;6.770;2023-02-05T15:24:16;5.90;;;1.63;;
2646;SDS011;1333;50.958;6.770;2023-02-05T15:26:49;3.83;;;1.40;;
2646;SDS011;1333;50.958;6.770;2023-02-05T15:29:26;5.17;;;1.63;;
2646;SDS011;1333;50.958;6.770;2023-02-05T15:32:00;4.90;;;1.93;;
2646;SDS011;1333;50.958;6.770;2023-02-05T15:36:57;5.00;;;1.50;;
2646;SDS011;1333;50.958;6.770;2023-02-05T15:41:54;4.37;;;1.83;;
2646;SDS011;1333;50.958;6.770;2023-02-05T15:44:24;3.10;;;1.50;;
2646;SDS011;1333;50.958;6.770;2023-02-05T15:46:51;8.07;;;2.60;;
2646;SDS011;1333;50.958;6.770;2023-02-05T15:49:19;5.47;;;1.80;;
2646;SDS011;1333;50.958;6.770;2023-02-05T15:51:49;7.27;;;3.47;;
2646;SDS011;1333;50.958;6.770;2023-02-05T15:54:16;1.67;;;1.53;;
2646;SDS011;1333;50.958;6.770;2023-02-05T15:56:46;4.87;;;1.60;;
2646;SDS011;1333;50.958;6.770;2023-02-05T15:59:24;1.23;;;1.10;;
2646;SDS011;1333;50.958;6.770;2023-02-05T16:01:58;2.33;;;1.50;;
2646;SDS011;1333;50.958;6.770;2023-02-05T16:04:42;8.40;;;3.60;;
2646;SDS011;1333;50.958;6.770;2023-02-05T16:07:19;6.47;;;1.73;;
2646;SDS011;1333;50.958;6.770;2023-02-05T16:09:55;1.27;;;1.00;;
2646;SDS011;1333;50.958;6.770;2023-02-05T16:12:23;4.27;;;1.37;;
2646;SDS011;1333;50.958;6.770;2023-02-05T16:14:58;4.47;;;1.83;;
2646;SDS011;1333;50.958;6.770;2023-02-05T16:17:33;3.83;;;1.90;;
2646;SDS011;1333;50.958;6.770;2023-02-05T16:20:11;3.07;;;1.83;;
2646;SDS011;1333;50.958;6.770;2023-02-05T16:22:51;3.70;;;2.10;;
2646;SDS011;1333;50.958;6.770;2023-02-05T16:25:25;3.40;;;2.07;;
2646;SDS011;1333;50.958;6.770;2023-02-05T16:27:58;9.40;;;2.10;;
2646;SDS011;1333;50.958;6.770;2023-02-05T16:30:30;7.17;;;2.43;;
2646;SDS011;1333;50.958;6.770;2023-02-05T16:33:06;8.83;;;2.57;;
2646;SDS011;1333;50.958;6.770;2023-02-05T16:35:56;11.27;;;2.03;;
2646;SDS011;1333;50.958;6.770;2023-02-05T16:38:25;19.90;;;7.60;;
2646;SDS011;1333;50.958;6.770;2023-02-05T16:40:52;2.67;;;1.70;;
2646;SDS011;1333;50.958;6.770;2023-02-05T16:51:02;3.00;;;2.10;;
2646;SDS011;1333;50.958;6.770;2023-02-05T16:53:29;10.30;;;2.20;;
2646;SDS011;1333;50.958;6.770;2023-02-05T16:55:58;7.80;;;2.57;;
2646;SDS011;1333;50.958;6.770;2023-02-05T16:58:35;4.20;;;2.30;;
2646;SDS011;1333;50.958;6.770;2023-02-05T17:01:07;10.83;;;2.70;;
2646;SDS011;1333;50.958;6.770;2023-02-05T17:03:37;4.57;;;3.10;;
2646;SDS011;1333;50.958;6.770;2023-02-05T17:06:12;5.30;;;2.23;;
2646;SDS011;1333;50.958;6.770;2023-02-05T17:08:39;12.17;;;4.37;;
2646;SDS011;1333;50.958;6.770;2023-02-05T17:11:06;8.57;;;3.00;;
2646;SDS011;1333;50.958;6.770;2023-02-05T17:13:52;8.40;;;2.80;;
2646;SDS011;1333;50.958;6.770;2023-02-05T17:16:52;10.53;;;2.67;;
2646;SDS011;1333;50.958;6.770;2023-02-05T17:24:40;8.87;;;2.40;;
2646;SDS011;1333;50.958;6.770;2023-02-05T17:29:46;8.50;;;2.30;;
2646;SDS011;1333;50.958;6.770;2023-02-05T17:32:14;7.30;;;1.70;;
2646;SDS011;1333;50.958;6.770;2023-02-05T17:34:41;5.30;;;2.60;;
2646;SDS011;1333;50.958;6.770;2023-02-05T17:37:10;7.10;;;2.60;;
2646;SDS011;1333;50.958;6.770;2023-02-05T17:39:36;5.53;;;2.13;;
2646;SDS011;1333;50.958;6.770;2023-02-05T17:42:02;11.30;;;3.73;;
2646;SDS011;1333;50.958;6.770;2023-02-05T17:44:27;7.10;;;2.77;;
2646;SDS011;1333;50.958;6.770;2023-02-05T17:46:53;4.30;;;2.90;;
2646;SDS011;1333;50.958;6.770;2023-02-05T17:49:19;18.07;;;4.10;;
2646;SDS011;1333;50.958;6.770;2023-02-05T17:51:44;8.60;;;2.33;;
2646;SDS011;1333;50.958;6.770;2023-02-05T17:54:17;9.50;;;2.00;;
2646;SDS011;1333;50.958;6.770;2023-02-05T17:56:47;9.83;;;2.50;;
2646;SDS011;1333;50.958;6.770;2023-02-05T17:59:14;5.87;;;1.67;;
2646;SDS011;1333;50.958;6.770;2023-02-05T18:01:42;6.57;;;1.83;;
2646;SDS011;1333;50.958;6.770;2023-02-05T18:04:08;8.30;;;1.90;;
2646;SDS011;1333;50.958;6.770;2023-02-05T18:06:34;8.23;;;2.93;;
2646;SDS011;1333;50.958;6.770;2023-02-05T18:09:01;5.73;;;2.17;;
2646;SDS011;1333;50.958;6.770;2023-02-05T18:11:27;7.40;;;2.40;;